createdAt,value
2019-01-03T00:01:31.044Z,8.77
2019-01-03T00:06:37.029Z,9.23
2019-01-03T00:11:52.110Z,9.63
2019-01-03T00:17:13.556Z,8.10
2019-01-03T00:22:35.729Z,10.53
2019-01-03T00:27:58.375Z,8.30
2019-01-03T00:33:04.069Z,9.93
2019-01-03T00:38:26.224Z,8.63
2019-01-03T00:43:34.615Z,8.53
2019-01-03T00:48:43.619Z,8.40
2019-01-03T00:53:55.638Z,8.87
2019-01-03T00:59:03.826Z,8.73
2019-01-03T01:04:10.202Z,9.20
2019-01-03T01:09:32.026Z,8.10
2019-01-03T01:14:54.335Z,8.30
2019-01-03T01:20:03.736Z,9.18
2019-01-03T01:25:09.840Z,8.83
2019-01-03T01:30:16.273Z,8.73
2019-01-03T01:35:22.664Z,8.70
2019-01-03T01:40:44.544Z,10.63
2019-01-03T01:45:50.284Z,9.80
2019-01-03T01:50:58.820Z,9.50
2019-01-03T01:56:21.267Z,8.90
2019-01-03T02:01:27.737Z,9.17
2019-01-03T02:06:33.753Z,8.73
2019-01-03T02:11:55.018Z,9.30
2019-01-03T02:17:09.982Z,9.77
2019-01-03T02:22:34.810Z,10.20
2019-01-03T02:27:41.153Z,10.37
2019-01-03T02:32:55.964Z,10.47
2019-01-03T02:38:19.749Z,11.17
2019-01-03T02:43:28.777Z,10.33
2019-01-03T02:48:37.253Z,10.00
2019-01-03T02:53:55.433Z,11.07
2019-01-03T02:59:01.759Z,10.33
2019-01-03T03:04:23.590Z,10.17
2019-01-03T03:09:35.108Z,10.10
2019-01-03T03:14:52.924Z,9.87
2019-01-03T03:20:07.434Z,10.93
2019-01-03T03:25:29.888Z,10.70
2019-01-03T03:30:52.332Z,11.17
2019-01-03T03:36:03.960Z,11.83
2019-01-03T03:41:16.692Z,11.00
2019-01-03T03:46:22.975Z,10.77
2019-01-03T03:51:31.786Z,11.20
2019-01-03T03:56:46.586Z,11.23
2019-01-03T04:02:07.636Z,10.37
2019-01-03T04:07:29.911Z,10.93
2019-01-03T04:12:47.867Z,10.93
2019-01-03T04:18:03.442Z,10.63
2019-01-03T04:23:18.562Z,11.30
2019-01-03T04:28:40.955Z,9.97
2019-01-03T04:33:55.709Z,11.67
2019-01-03T04:39:07.618Z,10.90
2019-01-03T04:44:16.834Z,10.90
2019-01-03T04:49:22.860Z,11.53
2019-01-03T04:54:44.878Z,10.53
2019-01-03T05:00:02.647Z,11.17
2019-01-03T05:05:11.534Z,10.90
2019-01-03T05:10:20.859Z,11.57
2019-01-03T05:15:42.947Z,11.67
2019-01-03T05:20:51.743Z,11.37
2019-01-03T05:25:57.715Z,12.47
2019-01-03T05:31:12.976Z,12.27
2019-01-03T05:36:18.703Z,12.17
2019-01-03T05:41:24.918Z,11.83
2019-01-03T05:46:47.129Z,12.50
2019-01-03T05:51:53.135Z,13.07
2019-01-03T05:56:59.138Z,13.03
2019-01-03T06:02:14.413Z,13.23
2019-01-03T06:07:20.428Z,13.37
2019-01-03T06:12:35.670Z,13.27
2019-01-03T06:17:50.592Z,13.23
2019-01-03T06:23:05.212Z,13.03
2019-01-03T06:28:13.556Z,12.80
2019-01-03T06:33:25.368Z,13.93
2019-01-03T06:38:31.419Z,13.53
2019-01-03T06:43:43.089Z,13.43
2019-01-03T06:49:00.595Z,12.67
2019-01-03T06:54:12.174Z,13.63
2019-01-03T06:59:21.118Z,13.80
2019-01-03T07:04:41.995Z,14.50
2019-01-03T07:09:56.827Z,14.27
2019-01-03T07:15:02.783Z,14.23
2019-01-03T07:20:17.888Z,14.80
2019-01-03T07:25:23.565Z,14.50
2019-01-03T07:30:32.220Z,14.97
2019-01-03T07:35:37.927Z,14.80
2019-01-03T07:40:52.796Z,15.13
2019-01-03T07:46:08.069Z,15.73
2019-01-03T07:51:30.456Z,16.20
2019-01-03T07:56:52.317Z,15.43
2019-01-03T08:01:58.582Z,15.40
2019-01-03T08:07:20.906Z,14.78
2019-01-03T08:12:29.317Z,15.10
2019-01-03T08:17:35.271Z,15.27
2019-01-03T08:22:47.222Z,22.27
2019-01-03T08:27:56.264Z,16.50
2019-01-03T08:33:14.591Z,13.97
2019-01-03T08:38:37.163Z,12.57
2019-01-03T08:43:52.144Z,14.00
2019-01-03T08:49:00.594Z,14.53
2019-01-03T08:54:22.297Z,13.87
2019-01-03T08:59:31.086Z,14.40
2019-01-03T09:04:42.945Z,15.07
2019-01-03T09:09:48.905Z,14.40
2019-01-03T09:15:06.328Z,13.10
2019-01-03T09:20:12.290Z,12.75
2019-01-03T09:25:18.280Z,12.03
2019-01-03T09:30:42.504Z,11.63
2019-01-03T09:35:48.477Z,11.38
2019-01-03T09:41:10.654Z,9.90
2019-01-03T09:46:14.681Z,9.30
2019-01-03T09:51:18.998Z,9.10
2019-01-03T09:56:23.367Z,8.87
2019-01-03T10:01:27.730Z,8.73
2019-01-03T10:06:32.436Z,8.47
2019-01-03T10:11:36.831Z,8.80
2019-01-03T10:16:40.856Z,9.07
2019-01-03T10:21:45.115Z,10.37
2019-01-03T10:26:49.429Z,11.07
2019-01-03T10:31:53.763Z,12.77
2019-01-03T10:36:57.803Z,11.37
2019-01-03T10:42:01.851Z,10.03
2019-01-03T10:47:06.186Z,10.50
2019-01-03T10:52:10.263Z,10.07
2019-01-03T10:57:14.284Z,10.23
2019-01-03T11:02:18.906Z,8.27
2019-01-03T11:07:23.549Z,8.00
2019-01-03T11:12:27.857Z,7.80
2019-01-03T11:17:32.175Z,6.93
2019-01-03T11:22:36.471Z,7.63
2019-01-03T11:27:40.566Z,7.47
2019-01-03T11:32:44.899Z,7.22
2019-01-03T11:37:49.248Z,7.63
2019-01-03T11:42:53.905Z,9.20
2019-01-03T11:47:58.262Z,10.23
2019-01-03T11:53:02.350Z,15.63
2019-01-03T11:58:06.801Z,18.20
2019-01-03T12:03:11.192Z,20.30
2019-01-03T12:08:15.546Z,22.77
2019-01-03T12:13:19.908Z,20.57
2019-01-03T12:18:24.284Z,18.80
2019-01-03T12:23:28.657Z,16.50
2019-01-03T12:28:33.902Z,15.47
2019-01-03T12:33:38.494Z,14.93
2019-01-03T12:38:42.856Z,15.03
2019-01-03T12:43:47.236Z,14.87
2019-01-03T12:48:51.372Z,16.90
2019-01-03T12:53:55.428Z,17.37
2019-01-03T12:58:59.479Z,18.13
2019-01-03T13:04:04.052Z,19.27
2019-01-03T13:09:10.315Z,18.43
2019-01-03T13:14:15.024Z,20.23
2019-01-03T13:19:19.676Z,19.03
2019-01-03T13:24:23.782Z,17.20
2019-01-03T13:29:27.824Z,17.30
2019-01-03T13:34:31.878Z,14.53
2019-01-03T13:39:36.153Z,13.75
2019-01-03T13:44:40.195Z,13.30
2019-01-03T13:49:44.514Z,13.33
2019-01-03T13:54:48.557Z,13.27
2019-01-03T13:59:52.905Z,12.37
2019-01-03T14:04:57.002Z,13.33
2019-01-03T14:10:01.049Z,11.53
2019-01-03T14:15:07.845Z,11.33
2019-01-03T14:20:13.174Z,10.53
2019-01-03T14:25:17.513Z,8.43
2019-01-03T14:30:21.962Z,6.57
2019-01-03T14:35:26.669Z,6.47
2019-01-03T14:40:31.047Z,5.87
2019-01-03T14:45:35.424Z,6.50
2019-01-03T14:50:39.504Z,7.37
2019-01-03T14:55:43.835Z,7.20
2019-01-03T15:00:48.230Z,6.90
2019-01-03T15:05:52.317Z,6.33
2019-01-03T15:10:56.359Z,6.10
2019-01-03T15:16:00.764Z,6.30
2019-01-03T15:21:05.166Z,5.87
2019-01-03T15:26:09.552Z,7.03
2019-01-03T15:31:14.265Z,6.10
2019-01-03T15:36:18.788Z,6.80
2019-01-03T15:41:23.128Z,7.50
2019-01-03T15:46:27.886Z,8.07
2019-01-03T15:51:32.255Z,7.60
2019-01-03T15:56:36.795Z,10.30
2019-01-03T16:01:41.512Z,8.37
2019-01-03T16:06:45.898Z,8.17
2019-01-03T16:11:50.279Z,8.43
2019-01-03T16:16:54.382Z,8.57
2019-01-03T16:21:58.424Z,7.77
2019-01-03T16:27:02.782Z,7.67
2019-01-03T16:32:06.907Z,12.30
2019-01-03T16:37:11.030Z,8.07
2019-01-03T16:42:15.537Z,9.40
2019-01-03T16:47:20.137Z,7.77
2019-01-03T16:52:24.523Z,6.17
2019-01-03T16:57:28.895Z,6.13
2019-01-03T17:02:33.549Z,5.20
2019-01-03T17:07:37.930Z,5.73
2019-01-03T17:12:42.086Z,5.70
2019-01-03T17:17:46.124Z,4.70
2019-01-03T17:22:50.434Z,7.33
2019-01-03T17:27:54.770Z,6.40
2019-01-03T17:32:59.472Z,5.73
2019-01-03T17:38:03.845Z,5.53
2019-01-03T17:43:08.230Z,6.50
2019-01-03T17:48:12.322Z,7.73
2019-01-03T17:53:16.667Z,9.10
2019-01-03T17:58:20.753Z,8.20
2019-01-03T18:03:25.124Z,9.37
2019-01-03T18:08:29.535Z,7.47
2019-01-03T18:13:33.924Z,8.77
2019-01-03T18:18:38.596Z,12.67
2019-01-03T18:23:42.993Z,8.30
2019-01-03T18:28:47.091Z,8.40
2019-01-03T18:33:51.449Z,11.10
2019-01-03T18:38:55.585Z,6.27
2019-01-03T18:44:00.414Z,6.43
2019-01-03T18:49:04.637Z,7.77
2019-01-03T18:54:08.939Z,8.07
2019-01-03T18:59:13.105Z,7.03
2019-01-03T19:04:17.573Z,6.50
2019-01-03T19:09:21.953Z,12.40
2019-01-03T19:14:26.371Z,9.30
2019-01-03T19:19:30.505Z,8.13
2019-01-03T19:24:35.379Z,8.50
2019-01-03T19:29:39.776Z,7.60
2019-01-03T19:34:44.585Z,7.70
2019-01-03T19:39:48.686Z,7.80
2019-01-03T19:44:52.738Z,8.77
2019-01-03T19:49:57.115Z,8.10
2019-01-03T19:55:01.512Z,7.63
2019-01-03T20:00:11.024Z,8.80
2019-01-03T20:05:15.161Z,8.78
2019-01-03T20:10:20.622Z,33.33
2019-01-03T20:15:24.751Z,15.67
2019-01-03T20:20:29.426Z,10.07
2019-01-03T20:25:34.625Z,9.40
2019-01-03T20:30:44.811Z,10.40
2019-01-03T20:35:46.197Z,9.20
2019-01-03T20:40:50.877Z,10.03
2019-01-03T20:45:55.269Z,9.37
2019-01-03T20:51:00.935Z,10.30
2019-01-03T20:56:05.560Z,10.30
2019-01-03T21:01:09.636Z,10.97
2019-01-03T21:06:13.666Z,10.93
2019-01-03T21:11:17.690Z,11.00
2019-01-03T21:16:22.471Z,12.73
2019-01-03T21:21:27.143Z,11.97
2019-01-03T21:26:31.506Z,13.20
2019-01-03T21:31:35.836Z,15.20
2019-01-03T21:36:39.873Z,15.60
2019-01-03T21:41:43.889Z,15.83
2019-01-03T21:46:48.477Z,17.13
2019-01-03T21:51:52.861Z,15.87
2019-01-03T21:56:57.251Z,16.63
2019-01-03T22:02:01.904Z,16.73
2019-01-03T22:07:06.282Z,17.87
2019-01-03T22:12:10.350Z,17.77
2019-01-03T22:17:14.370Z,17.57
2019-01-03T22:22:18.936Z,17.90
2019-01-03T22:27:23.580Z,19.77
2019-01-03T22:32:27.654Z,20.13
2019-01-03T22:37:31.973Z,21.13
2019-01-03T22:42:36.354Z,23.07
2019-01-03T22:47:40.737Z,24.03
2019-01-03T22:52:45.102Z,24.33
2019-01-03T22:57:49.805Z,23.83
2019-01-03T23:02:54.173Z,24.57
2019-01-03T23:07:58.536Z,23.73
2019-01-03T23:13:02.931Z,25.00
2019-01-03T23:18:06.999Z,27.20
2019-01-03T23:23:11.322Z,25.87
2019-01-03T23:28:15.681Z,24.47
2019-01-03T23:33:20.048Z,25.83
2019-01-03T23:38:24.695Z,25.90
2019-01-03T23:43:29.070Z,26.53
2019-01-03T23:48:34.851Z,26.37
2019-01-03T23:53:39.555Z,25.53
2019-01-03T23:58:44.015Z,26.03
